sensor_id;sensor_type;location;lat;lon;timestamp;pressure;altitude;pressure_sealevel;temperature;humidity
16580;BME280;8402;51.466;6.806;2023-01-23T00:00:13;103128.78;;;3.44;100.00
16580;BME280;8402;51.466;6.806;2023-01-23T00:02:43;103133.50;;;3.49;100.00
16580;BME280;8402;51.466;6.806;2023-01-23T00:05:13;103131.03;;;3.47;100.00
16580;BME280;8402;51.466;6.806;2023-01-23T00:07:43;103136.00;;;3.50;100.00
16580;BME280;8402;51.466;6.806;2023-01-23T00:10:13;103140.94;;;3.53;100.00
16580;BME280;8402;51.466;6.806;2023-01-23T00:12:46;103138.47;;;3.58;100.00
16580;BME280;8402;51.466;6.806;2023-01-23T00:15:19;103141.78;;;3.61;100.00
16580;BME280;8402;51.466;6.806;2023-01-23T00:17:49;103141.34;;;3.64;100.00
16580;BME280;8402;51.466;6.806;2023-01-23T00:20:19;103140.94;;;3.67;100.00
16580;BME280;8402;51.466;6.806;2023-01-23T00:22:48;103143.19;;;3.70;100.00
16580;BME280;8402;51.466;6.806;2023-01-23T00:25:18;103140.50;;;3.70;100.00
16580;BME280;8402;51.466;6.806;2023-01-23T00:27:50;103133.50;;;3.69;100.00
16580;BME280;8402;51.466;6.806;2023-01-23T00:30:20;103141.16;;;3.72;100.00
16580;BME280;8402;51.466;6.806;2023-01-23T00:32:50;103128.94;;;3.69;100.00
16580;BME280;8402;51.466;6.806;2023-01-23T00:35:20;103131.84;;;3.68;100.00
16580;BME280;8402;51.466;6.806;2023-01-23T00:37:50;103120.28;;;3.67;100.00
16580;BME280;8402;51.466;6.806;2023-01-23T00:40:20;103133.94;;;3.66;100.00
16580;BME280;8402;51.466;6.806;2023-01-23T00:42:53;103139.28;;;3.66;100.00
16580;BME280;8402;51.466;6.806;2023-01-23T00:45:22;103134.75;;;3.66;100.00
16580;BME280;8402;51.466;6.806;2023-01-23T00:47:52;103133.94;;;3.66;100.00
16580;BME280;8402;51.466;6.806;2023-01-23T00:50:22;103124.84;;;3.67;100.00
16580;BME280;8402;51.466;6.806;2023-01-23T00:52:52;103129.16;;;3.68;100.00
16580;BME280;8402;51.466;6.806;2023-01-23T00:55:22;103131.84;;;3.68;100.00
16580;BME280;8402;51.466;6.806;2023-01-23T00:57:54;103131.84;;;3.68;100.00
16580;BME280;8402;51.466;6.806;2023-01-23T01:00:25;103137.59;;;3.71;100.00
16580;BME280;8402;51.466;6.806;2023-01-23T01:02:55;103134.75;;;3.73;100.00
16580;BME280;8402;51.466;6.806;2023-01-23T01:05:25;103137.22;;;3.74;100.00
16580;BME280;8402;51.466;6.806;2023-01-23T01:07:55;103138.03;;;3.75;100.00
16580;BME280;8402;51.466;6.806;2023-01-23T01:10:25;103140.50;;;3.76;100.00
16580;BME280;8402;51.466;6.806;2023-01-23T01:13:00;103143.41;;;3.75;100.00
16580;BME280;8402;51.466;6.806;2023-01-23T01:15:30;103145.03;;;3.76;100.00
16580;BME280;8402;51.466;6.806;2023-01-23T01:18:03;103150.41;;;3.76;100.00
16580;BME280;8402;51.466;6.806;2023-01-23T01:20:33;103154.56;;;3.72;100.00
16580;BME280;8402;51.466;6.806;2023-01-23T01:23:03;103152.91;;;3.71;100.00
16580;BME280;8402;51.466;6.806;2023-01-23T01:25:33;103159.94;;;3.72;100.00
16580;BME280;8402;51.466;6.806;2023-01-23T01:28:07;103157.44;;;3.70;100.00
16580;BME280;8402;51.466;6.806;2023-01-23T01:30:36;103165.31;;;3.72;100.00
16580;BME280;8402;51.466;6.806;2023-01-23T01:33:07;103163.44;;;3.72;100.00
16580;BME280;8402;51.466;6.806;2023-01-23T01:35:38;103172.13;;;3.74;100.00
16580;BME280;8402;51.466;6.806;2023-01-23T01:38:08;103173.97;;;3.74;100.00
16580;BME280;8402;51.466;6.806;2023-01-23T01:40:38;103173.97;;;3.74;100.00
16580;BME280;8402;51.466;6.806;2023-01-23T01:43:17;103183.06;;;3.73;100.00
16580;BME280;8402;51.466;6.806;2023-01-23T01:46:04;103178.91;;;3.70;100.00
16580;BME280;8402;51.466;6.806;2023-01-23T01:48:39;103183.69;;;3.75;100.00
16580;BME280;8402;51.466;6.806;2023-01-23T01:51:17;103184.50;;;3.75;100.00
16580;BME280;8402;51.466;6.806;2023-01-23T01:53:54;103178.53;;;3.73;100.00
16580;BME280;8402;51.466;6.806;2023-01-23T01:56:26;103182.66;;;3.76;100.00
16580;BME280;8402;51.466;6.806;2023-01-23T01:58:59;103179.34;;;3.74;100.00
16580;BME280;8402;51.466;6.806;2023-01-23T02:01:30;103185.13;;;3.77;100.00
16580;BME280;8402;51.466;6.806;2023-01-23T02:04:00;103177.28;;;3.76;100.00
16580;BME280;8402;51.466;6.806;2023-01-23T02:06:31;103177.28;;;3.76;100.00
16580;BME280;8402;51.466;6.806;2023-01-23T02:09:04;103173.16;;;3.73;100.00
16580;BME280;8402;51.466;6.806;2023-01-23T02:11:37;103178.91;;;3.70;100.00
16580;BME280;8402;51.466;6.806;2023-01-23T02:14:10;103178.91;;;3.70;100.00
16580;BME280;8402;51.466;6.806;2023-01-23T02:16:41;103187.81;;;3.71;100.00
16580;BME280;8402;51.466;6.806;2023-01-23T02:19:27;103178.09;;;3.70;100.00
16580;BME280;8402;51.466;6.806;2023-01-23T02:22:06;103185.13;;;3.71;100.00
16580;BME280;8402;51.466;6.806;2023-01-23T02:24:41;103179.75;;;3.71;100.00
16580;BME280;8402;51.466;6.806;2023-01-23T02:27:15;103182.25;;;3.72;100.00
16580;BME280;8402;51.466;6.806;2023-01-23T02:29:45;103183.06;;;3.73;100.00
16580;BME280;8402;51.466;6.806;2023-01-23T02:32:17;103181.44;;;3.72;100.00
16580;BME280;8402;51.466;6.806;2023-01-23T02:34:51;103176.06;;;3.72;100.00
16580;BME280;8402;51.466;6.806;2023-01-23T02:37:25;103175.19;;;3.71;100.00
16580;BME280;8402;51.466;6.806;2023-01-23T02:39:59;103168.59;;;3.74;100.00
16580;BME280;8402;51.466;6.806;2023-01-23T02:42:32;103169.44;;;3.74;100.00
16580;BME280;8402;51.466;6.806;2023-01-23T02:45:03;103163.25;;;3.74;100.00
16580;BME280;8402;51.466;6.806;2023-01-23T02:47:33;103156.22;;;3.73;100.00
16580;BME280;8402;51.466;6.806;2023-01-23T02:50:04;103150.84;;;3.73;100.00
16580;BME280;8402;51.466;6.806;2023-01-23T02:52:34;103148.78;;;3.75;100.00
16580;BME280;8402;51.466;6.806;2023-01-23T02:55:05;103141.31;;;3.77;100.00
16580;BME280;8402;51.466;6.806;2023-01-23T02:57:37;103145.88;;;3.76;100.00
16580;BME280;8402;51.466;6.806;2023-01-23T03:00:09;103142.16;;;3.77;100.00
16580;BME280;8402;51.466;6.806;2023-01-23T03:02:42;103146.09;;;3.75;100.00
16580;BME280;8402;51.466;6.806;2023-01-23T03:05:13;103146.09;;;3.75;100.00
16580;BME280;8402;51.466;6.806;2023-01-23T03:07:43;103150.63;;;3.74;100.00
16580;BME280;8402;51.466;6.806;2023-01-23T03:10:13;103162.00;;;3.70;100.00
16580;BME280;8402;51.466;6.806;2023-01-23T03:12:46;103164.69;;;3.70;100.00
16580;BME280;8402;51.466;6.806;2023-01-23T03:15:16;103162.22;;;3.68;100.00
16580;BME280;8402;51.466;6.806;2023-01-23T03:17:46;103164.06;;;3.68;100.00
16580;BME280;8402;51.466;6.806;2023-01-23T03:20:17;103159.53;;;3.68;100.00
16580;BME280;8402;51.466;6.806;2023-01-23T03:22:49;103168.00;;;3.72;100.00
16580;BME280;8402;51.466;6.806;2023-01-23T03:25:19;103172.34;;;3.73;100.00
16580;BME280;8402;51.466;6.806;2023-01-23T03:27:51;103170.25;;;3.75;100.00
16580;BME280;8402;51.466;6.806;2023-01-23T03:30:21;103167.13;;;3.78;100.00
16580;BME280;8402;51.466;6.806;2023-01-23T03:32:51;103173.56;;;3.70;100.00
16580;BME280;8402;51.466;6.806;2023-01-23T03:35:21;103170.88;;;3.64;100.00
16580;BME280;8402;51.466;6.806;2023-01-23T03:37:50;103176.06;;;3.58;100.00
16580;BME280;8402;51.466;6.806;2023-01-23T03:40:24;103163.69;;;3.51;100.00
16580;BME280;8402;51.466;6.806;2023-01-23T03:43:09;103173.59;;;3.50;100.00
16580;BME280;8402;51.466;6.806;2023-01-23T03:45:39;103179.34;;;3.47;100.00
16580;BME280;8402;51.466;6.806;2023-01-23T03:48:08;103179.56;;;3.52;100.00
16580;BME280;8402;51.466;6.806;2023-01-23T03:50:38;103178.53;;;3.53;100.00
16580;BME280;8402;51.466;6.806;2023-01-23T03:53:08;103191.53;;;3.56;100.00
16580;BME280;8402;51.466;6.806;2023-01-23T03:55:38;103190.09;;;3.61;100.00
16580;BME280;8402;51.466;6.806;2023-01-23T03:58:10;103182.66;;;3.63;100.00
16580;BME280;8402;51.466;6.806;2023-01-23T04:00:40;103196.72;;;3.65;100.00
16580;BME280;8402;51.466;6.806;2023-01-23T04:03:10;103186.59;;;3.67;100.00
16580;BME280;8402;51.466;6.806;2023-01-23T04:05:40;103188.84;;;3.70;100.00
16580;BME280;8402;51.466;6.806;2023-01-23T04:08:10;103180.78;;;3.70;100.00
16580;BME280;8402;51.466;6.806;2023-01-23T04:10:40;103184.28;;;3.64;100.00
16580;BME280;8402;51.466;6.806;2023-01-23T04:13:12;103193.81;;;3.59;100.00
16580;BME280;8402;51.466;6.806;2023-01-23T04:15:42;103190.09;;;3.61;100.00
16580;BME280;8402;51.466;6.806;2023-01-23T04:18:12;103197.13;;;3.62;100.00
16580;BME280;8402;51.466;6.806;2023-01-23T04:20:42;103195.03;;;3.64;100.00
16580;BME280;8402;51.466;6.806;2023-01-23T04:23:12;103192.56;;;3.69;100.00
16580;BME280;8402;51.466;6.806;2023-01-23T04:25:42;103192.56;;;3.69;100.00
16580;BME280;8402;51.466;6.806;2023-01-23T04:28:14;103185.53;;;3.68;100.00
16580;BME280;8402;51.466;6.806;2023-01-23T04:30:44;103180.19;;;3.68;100.00
16580;BME280;8402;51.466;6.806;2023-01-23T04:33:14;103188.44;;;3.66;100.00
16580;BME280;8402;51.466;6.806;2023-01-23T04:35:53;103191.34;;;3.65;100.00
16580;BME280;8402;51.466;6.806;2023-01-23T04:38:25;103183.47;;;3.70;100.00
16580;BME280;8402;51.466;6.806;2023-01-23T04:40:55;103185.75;;;3.73;100.00
16580;BME280;8402;51.466;6.806;2023-01-23T04:43:28;103183.06;;;3.73;100.00
16580;BME280;8402;51.466;6.806;2023-01-23T04:45:58;103190.69;;;3.76;100.00
16580;BME280;8402;51.466;6.806;2023-01-23T04:48:28;103195.03;;;3.77;100.00
16580;BME280;8402;51.466;6.806;2023-01-23T04:50:58;103200.00;;;3.80;100.00
16580;BME280;8402;51.466;6.806;2023-01-23T04:53:28;103190.09;;;3.80;100.00
16580;BME280;8402;51.466;6.806;2023-01-23T04:55:58;103191.13;;;3.79;100.00
16580;BME280;8402;51.466;6.806;2023-01-23T04:58:31;103187.19;;;3.75;100.00
16580;BME280;8402;51.466;6.806;2023-01-23T05:01:04;103186.75;;;3.78;100.00
16580;BME280;8402;51.466;6.806;2023-01-23T05:03:34;103185.94;;;3.78;100.00
16580;BME280;8402;51.466;6.806;2023-01-23T05:06:05;103196.50;;;3.73;100.00
16580;BME280;8402;51.466;6.806;2023-01-23T05:08:35;103198.38;;;3.72;100.00
16580;BME280;8402;51.466;6.806;2023-01-23T05:11:05;103194.44;;;3.75;100.00
16580;BME280;8402;51.466;6.806;2023-01-23T05:13:37;103200.84;;;3.74;100.00
16580;BME280;8402;51.466;6.806;2023-01-23T05:16:07;103195.47;;;3.74;100.00
16580;BME280;8402;51.466;6.806;2023-01-23T05:18:37;103197.53;;;3.72;100.00
16580;BME280;8402;51.466;6.806;2023-01-23T05:21:07;103200.22;;;3.72;100.00
16580;BME280;8402;51.466;6.806;2023-01-23T05:23:40;103201.03;;;3.72;100.00
16580;BME280;8402;51.466;6.806;2023-01-23T05:26:10;103197.53;;;3.72;100.00
16580;BME280;8402;51.466;6.806;2023-01-23T05:28:42;103207.41;;;3.71;100.00
16580;BME280;8402;51.466;6.806;2023-01-23T05:31:12;103209.09;;;3.72;100.00
16580;BME280;8402;51.466;6.806;2023-01-23T05:33:42;103201.88;;;3.73;100.00
16580;BME280;8402;51.466;6.806;2023-01-23T05:36:12;103215.28;;;3.73;100.00
16580;BME280;8402;51.466;6.806;2023-01-23T05:38:44;103219.03;;;3.72;100.00
16580;BME280;8402;51.466;6.806;2023-01-23T05:41:14;103210.09;;;3.71;100.00
16580;BME280;8402;51.466;6.806;2023-01-23T05:43:46;103217.97;;;3.73;100.00
16580;BME280;8402;51.466;6.806;2023-01-23T05:46:20;103217.75;;;3.74;100.00
16580;BME280;8402;51.466;6.806;2023-01-23T05:48:52;103214.03;;;3.75;100.00
16580;BME280;8402;51.466;6.806;2023-01-23T05:51:23;103217.56;;;3.76;100.00
16580;BME280;8402;51.466;6.806;2023-01-23T05:54:09;103219.41;;;3.75;100.00
16580;BME280;8402;51.466;6.806;2023-01-23T05:56:47;103217.34;;;3.77;100.00
16580;BME280;8402;51.466;6.806;2023-01-23T05:59:19;103216.50;;;3.77;100.00
16580;BME280;8402;51.466;6.806;2023-01-23T06:01:50;103218.59;;;3.75;100.00
16580;BME280;8402;51.466;6.806;2023-01-23T06:04:32;103224.38;;;3.72;100.00
16580;BME280;8402;51.466;6.806;2023-01-23T06:07:12;103226.88;;;3.73;100.00
16580;BME280;8402;51.466;6.806;2023-01-23T06:09:52;103233.06;;;3.74;100.00
16580;BME280;8402;51.466;6.806;2023-01-23T06:12:24;103237.19;;;3.70;100.00
16580;BME280;8402;51.466;6.806;2023-01-23T06:14:57;103242.97;;;3.73;100.00
16580;BME280;8402;51.466;6.806;2023-01-23T06:17:27;103244.19;;;3.71;100.00
16580;BME280;8402;51.466;6.806;2023-01-23T06:19:57;103236.56;;;3.68;100.00
16580;BME280;8402;51.466;6.806;2023-01-23T06:22:26;103245.00;;;3.71;100.00
16580;BME280;8402;51.466;6.806;2023-01-23T06:24:57;103248.56;;;3.72;100.00
16580;BME280;8402;51.466;6.806;2023-01-23T06:27:27;103247.53;;;3.73;100.00
16580;BME280;8402;51.466;6.806;2023-01-23T06:29:59;103248.94;;;3.75;100.00
16580;BME280;8402;51.466;6.806;2023-01-23T06:32:29;103250.59;;;3.76;100.00
16580;BME280;8402;51.466;6.806;2023-01-23T06:34:59;103250.81;;;3.75;100.00
16580;BME280;8402;51.466;6.806;2023-01-23T06:37:29;103253.28;;;3.76;100.00
16580;BME280;8402;51.466;6.806;2023-01-23T06:39:59;103262.59;;;3.74;100.00
16580;BME280;8402;51.466;6.806;2023-01-23T06:42:29;103263.63;;;3.73;100.00
16580;BME280;8402;51.466;6.806;2023-01-23T06:45:01;103267.34;;;3.72;100.00
16580;BME280;8402;51.466;6.806;2023-01-23T06:47:31;103269.81;;;3.73;100.00
16580;BME280;8402;51.466;6.806;2023-01-23T06:50:01;103271.47;;;3.74;100.00
16580;BME280;8402;51.466;6.806;2023-01-23T06:52:31;103277.66;;;3.75;100.00
16580;BME280;8402;51.466;6.806;2023-01-23T06:55:05;103278.28;;;3.77;100.00
16580;BME280;8402;51.466;6.806;2023-01-23T06:57:35;103287.81;;;3.79;100.00
16580;BME280;8402;51.466;6.806;2023-01-23T07:00:10;103291.72;;;3.77;100.00
16580;BME280;8402;51.466;6.806;2023-01-23T07:02:43;103295.44;;;3.76;100.00
16580;BME280;8402;51.466;6.806;2023-01-23T07:05:15;103301.84;;;3.75;100.00
16580;BME280;8402;51.466;6.806;2023-01-23T07:07:49;103297.09;;;3.77;100.00
16580;BME280;8402;51.466;6.806;2023-01-23T07:10:22;103298.72;;;3.78;100.00
16580;BME280;8402;51.466;6.806;2023-01-23T07:12:52;103305.78;;;3.79;100.00
16580;BME280;8402;51.466;6.806;2023-01-23T07:15:25;103304.09;;;3.78;100.00
16580;BME280;8402;51.466;6.806;2023-01-23T07:17:55;103300.41;;;3.79;100.00
16580;BME280;8402;51.466;6.806;2023-01-23T07:20:25;103301.41;;;3.78;100.00
16580;BME280;8402;51.466;6.806;2023-01-23T07:22:56;103302.88;;;3.80;100.00
16580;BME280;8402;51.466;6.806;2023-01-23T07:25:29;103309.06;;;3.81;100.00
16580;BME280;8402;51.466;6.806;2023-01-23T07:27:58;103319.81;;;3.81;100.00
16580;BME280;8402;51.466;6.806;2023-01-23T07:30:31;103319.81;;;3.81;100.00
16580;BME280;8402;51.466;6.806;2023-01-23T07:33:01;103331.19;;;3.83;100.00
16580;BME280;8402;51.466;6.806;2023-01-23T07:35:32;103323.13;;;3.83;100.00
16580;BME280;8402;51.466;6.806;2023-01-23T07:38:01;103333.84;;;3.83;100.00
16580;BME280;8402;51.466;6.806;2023-01-23T07:40:31;103335.50;;;3.84;100.00
16580;BME280;8402;51.466;6.806;2023-01-23T07:43:04;103335.50;;;3.84;100.00
16580;BME280;8402;51.466;6.806;2023-01-23T07:45:37;103331.78;;;3.85;100.00
16580;BME280;8402;51.466;6.806;2023-01-23T07:48:07;103333.84;;;3.83;100.00
16580;BME280;8402;51.466;6.806;2023-01-23T07:50:37;103346.91;;;3.86;100.00
16580;BME280;8402;51.466;6.806;2023-01-23T07:53:07;103344.81;;;3.88;100.00
16580;BME280;8402;51.466;6.806;2023-01-23T07:55:37;103340.88;;;3.91;100.00
16580;BME280;8402;51.466;6.806;2023-01-23T07:58:07;103346.47;;;3.89;100.00
16580;BME280;8402;51.466;6.806;2023-01-23T08:00:40;103334.09;;;3.88;100.00
16580;BME280;8402;51.466;6.806;2023-01-23T08:03:10;103327.66;;;3.89;100.00
16580;BME280;8402;51.466;6.806;2023-01-23T08:05:40;103322.91;;;3.91;100.00
16580;BME280;8402;51.466;6.806;2023-01-23T08:08:10;103327.66;;;3.89;100.00
16580;BME280;8402;51.466;6.806;2023-01-23T08:10:39;103338.41;;;3.89;100.00
16580;BME280;8402;51.466;6.806;2023-01-23T08:13:09;103322.31;;;3.89;100.00
16580;BME280;8402;51.466;6.806;2023-01-23T08:15:42;103333.03;;;3.89;100.00
16580;BME280;8402;51.466;6.806;2023-01-23T08:18:12;103335.94;;;3.94;100.00
16580;BME280;8402;51.466;6.806;2023-01-23T08:20:42;103340.06;;;3.97;100.00
16580;BME280;8402;51.466;6.806;2023-01-23T08:23:12;103336.34;;;3.98;100.00
16580;BME280;8402;51.466;6.806;2023-01-23T08:25:41;103345.03;;;4.00;100.00
16580;BME280;8402;51.466;6.806;2023-01-23T08:28:12;103355.38;;;3.96;100.00
16580;BME280;8402;51.466;6.806;2023-01-23T08:30:47;103352.69;;;3.96;100.00
16580;BME280;8402;51.466;6.806;2023-01-23T08:33:18;103358.66;;;3.98;100.00
16580;BME280;8402;51.466;6.806;2023-01-23T08:35:49;103354.94;;;3.99;100.00
16580;BME280;8402;51.466;6.806;2023-01-23T08:38:20;103347.53;;;4.01;100.00
16580;BME280;8402;51.466;6.806;2023-01-23T08:40:51;103352.06;;;4.01;100.00
16580;BME280;8402;51.466;6.806;2023-01-23T08:43:21;103349.38;;;4.01;100.00
16580;BME280;8402;51.466;6.806;2023-01-23T08:45:55;103345.22;;;3.98;100.00
16580;BME280;8402;51.466;6.806;2023-01-23T08:48:26;103352.25;;;3.99;100.00
16580;BME280;8402;51.466;6.806;2023-01-23T08:51:01;103354.56;;;4.02;100.00
16580;BME280;8402;51.466;6.806;2023-01-23T08:53:32;103355.97;;;4.05;100.00
16580;BME280;8402;51.466;6.806;2023-01-23T08:56:04;103356.81;;;4.05;100.00
16580;BME280;8402;51.466;6.806;2023-01-23T08:58:35;103348.53;;;4.07;100.00
16580;BME280;8402;51.466;6.806;2023-01-23T09:01:10;103359.09;;;4.08;100.00
16580;BME280;8402;51.466;6.806;2023-01-23T09:03:40;103364.06;;;4.11;100.00
16580;BME280;8402;51.466;6.806;2023-01-23T09:06:11;103357.44;;;4.14;100.00
16580;BME280;8402;51.466;6.806;2023-01-23T09:08:41;103365.69;;;4.12;100.00
16580;BME280;8402;51.466;6.806;2023-01-23T09:11:12;103362.41;;;4.10;100.00
16580;BME280;8402;51.466;6.806;2023-01-23T09:13:42;103359.72;;;4.10;100.00
16580;BME280;8402;51.466;6.806;2023-01-23T09:16:14;103352.47;;;4.04;100.00
16580;BME280;8402;51.466;6.806;2023-01-23T09:18:44;103355.78;;;4.06;100.00
16580;BME280;8402;51.466;6.806;2023-01-23T09:21:15;103357.25;;;4.09;100.00
16580;BME280;8402;51.466;6.806;2023-01-23T09:23:45;103363.66;;;4.14;100.00
16580;BME280;8402;51.466;6.806;2023-01-23T09:26:15;103368.59;;;4.18;100.00
16580;BME280;8402;51.466;6.806;2023-01-23T09:28:45;103365.31;;;4.22;100.00
16580;BME280;8402;51.466;6.806;2023-01-23T09:31:18;103370.69;;;4.22;100.00
16580;BME280;8402;51.466;6.806;2023-01-23T09:33:48;103370.47;;;4.24;100.00
16580;BME280;8402;51.466;6.806;2023-01-23T09:36:18;103371.50;;;4.23;100.00
16580;BME280;8402;51.466;6.806;2023-01-23T09:39:07;103380.19;;;4.25;100.00
16580;BME280;8402;51.466;6.806;2023-01-23T09:41:37;103385.56;;;4.25;100.00
16580;BME280;8402;51.466;6.806;2023-01-23T09:44:11;103381.00;;;4.25;100.00
16580;BME280;8402;51.466;6.806;2023-01-23T09:46:49;103382.66;;;4.26;100.00
16580;BME280;8402;51.466;6.806;2023-01-23T09:49:24;103384.72;;;4.31;100.00
16580;BME280;8402;51.466;6.806;2023-01-23T09:51:59;103398.78;;;4.33;100.00
16580;BME280;8402;51.466;6.806;2023-01-23T09:54:36;103394.03;;;4.35;100.00
16580;BME280;8402;51.466;6.806;2023-01-23T09:57:14;103389.69;;;4.34;100.00
16580;BME280;8402;51.466;6.806;2023-01-23T09:59:49;103389.69;;;4.40;100.00
16580;BME280;8402;51.466;6.806;2023-01-23T10:02:29;103381.00;;;4.45;100.00
16580;BME280;8402;51.466;6.806;2023-01-23T10:04:59;103381.63;;;4.47;100.00
16580;BME280;8402;51.466;6.806;2023-01-23T10:08:01;103385.34;;;4.46;100.00
16580;BME280;8402;51.466;6.806;2023-01-23T10:10:54;103385.56;;;4.51;100.00
16580;BME280;8402;51.466;6.806;2023-01-23T10:13:46;103381.81;;;4.52;100.00
16580;BME280;8402;51.466;6.806;2023-01-23T10:16:33;103385.13;;;4.48;100.00
16580;BME280;8402;51.466;6.806;2023-01-23T10:19:39;103376.22;;;4.47;100.00
16580;BME280;8402;51.466;6.806;2023-01-23T10:22:23;103385.94;;;4.48;100.00
16580;BME280;8402;51.466;6.806;2023-01-23T10:25:11;103384.72;;;4.51;100.00
16580;BME280;8402;51.466;6.806;2023-01-23T10:27:45;103381.38;;;4.55;100.00
16580;BME280;8402;51.466;6.806;2023-01-23T10:30:20;103373.53;;;4.60;100.00
16580;BME280;8402;51.466;6.806;2023-01-23T10:32:56;103375.19;;;4.61;100.00
16580;BME280;8402;51.466;6.806;2023-01-23T10:35:33;103369.41;;;4.64;100.00
16580;BME280;8402;51.466;6.806;2023-01-23T10:38:14;103378.47;;;4.63;100.00
16580;BME280;8402;51.466;6.806;2023-01-23T10:40:46;103368.97;;;4.67;100.00
16580;BME280;8402;51.466;6.806;2023-01-23T10:43:29;103373.91;;;4.70;100.00
16580;BME280;8402;51.466;6.806;2023-01-23T10:45:59;103375.16;;;4.75;100.00
16580;BME280;8402;51.466;6.806;2023-01-23T10:48:39;103370.16;;;4.78;100.00
16580;BME280;8402;51.466;6.806;2023-01-23T10:51:45;103375.53;;;4.85;100.00
16580;BME280;8402;51.466;6.806;2023-01-23T10:54:18;103373.88;;;4.90;100.00
16580;BME280;8402;51.466;6.806;2023-01-23T10:56:59;103369.31;;;4.91;100.00
16580;BME280;8402;51.466;6.806;2023-01-23T10:59:33;103380.09;;;4.91;100.00
16580;BME280;8402;51.466;6.806;2023-01-23T11:02:19;103374.72;;;4.84;99.76
16580;BME280;8402;51.466;6.806;2023-01-23T11:04:50;103370.97;;;4.92;99.90
16580;BME280;8402;51.466;6.806;2023-01-23T11:07:24;103374.69;;;4.91;100.00
16580;BME280;8402;51.466;6.806;2023-01-23T11:09:56;103379.25;;;4.90;100.00
16580;BME280;8402;51.466;6.806;2023-01-23T11:12:29;103368.91;;;4.94;100.00
16580;BME280;8402;51.466;6.806;2023-01-23T11:15:19;103370.56;;;4.95;100.00
16580;BME280;8402;51.466;6.806;2023-01-23T11:17:51;103375.25;;;5.06;100.00
16580;BME280;8402;51.466;6.806;2023-01-23T11:20:24;103372.16;;;5.09;100.00
16580;BME280;8402;51.466;6.806;2023-01-23T11:23:11;103366.56;;;5.11;99.90
16580;BME280;8402;51.466;6.806;2023-01-23T11:25:45;103362.63;;;5.13;99.41
16580;BME280;8402;51.466;6.806;2023-01-23T11:28:21;103369.47;;;5.09;97.62
16580;BME280;8402;51.466;6.806;2023-01-23T11:30:56;103366.75;;;5.16;98.98
16580;BME280;8402;51.466;6.806;2023-01-23T11:33:42;103367.59;;;5.16;99.10
16580;BME280;8402;51.466;6.806;2023-01-23T11:36:36;103368.63;;;5.15;99.04
16580;BME280;8402;51.466;6.806;2023-01-23T11:39:18;103362.19;;;5.23;99.33
16580;BME280;8402;51.466;6.806;2023-01-23T11:41:51;103359.72;;;5.21;98.00
16580;BME280;8402;51.466;6.806;2023-01-23T11:44:23;103370.06;;;5.18;95.74
16580;BME280;8402;51.466;6.806;2023-01-23T11:47:26;103363.88;;;5.11;95.15
16580;BME280;8402;51.466;6.806;2023-01-23T11:50:17;103367.19;;;5.06;94.51
16580;BME280;8402;51.466;6.806;2023-01-23T11:52:56;103364.69;;;5.11;95.01
16580;BME280;8402;51.466;6.806;2023-01-23T11:59:10;103369.69;;;5.14;95.24
16580;BME280;8402;51.466;6.806;2023-01-23T12:01:56;103367.34;;;5.24;96.86
16580;BME280;8402;51.466;6.806;2023-01-23T12:04:38;103369.59;;;5.28;94.80
16580;BME280;8402;51.466;6.806;2023-01-23T12:07:16;103378.56;;;5.21;91.37
16580;BME280;8402;51.466;6.806;2023-01-23T12:09:56;103374.19;;;5.20;91.15
16580;BME280;8402;51.466;6.806;2023-01-23T12:12:45;103374.59;;;5.24;93.45
16580;BME280;8402;51.466;6.806;2023-01-23T12:15:30;103374.13;;;5.34;94.12
16580;BME280;8402;51.466;6.806;2023-01-23T12:18:10;103363.56;;;5.32;92.64
16580;BME280;8402;51.466;6.806;2023-01-23T12:29:42;103369.97;;;5.38;92.80
16580;BME280;8402;51.466;6.806;2023-01-23T12:32:34;103373.69;;;5.43;93.41
16580;BME280;8402;51.466;6.806;2023-01-23T12:41:12;103372.75;;;5.56;94.91
16580;BME280;8402;51.466;6.806;2023-01-23T12:43:51;103369.47;;;5.54;93.46
16580;BME280;8402;51.466;6.806;2023-01-23T12:46:27;103368.41;;;5.55;93.27
16580;BME280;8402;51.466;6.806;2023-01-23T12:49:17;103361.19;;;5.49;92.46
16580;BME280;8402;51.466;6.806;2023-01-23T12:51:54;103360.34;;;5.55;94.06
16580;BME280;8402;51.466;6.806;2023-01-23T12:54:32;103358.69;;;5.54;93.59
16580;BME280;8402;51.466;6.806;2023-01-23T12:57:05;103359.94;;;5.58;95.07
16580;BME280;8402;51.466;6.806;2023-01-23T12:59:54;103356.81;;;5.55;93.98
16580;BME280;8402;51.466;6.806;2023-01-23T13:02:32;103364.31;;;5.52;94.18
16580;BME280;8402;51.466;6.806;2023-01-23T13:05:16;103361.19;;;5.49;93.76
16580;BME280;8402;51.466;6.806;2023-01-23T13:07:54;103361.63;;;5.52;94.70
16580;BME280;8402;51.466;6.806;2023-01-23T13:10:53;103363.53;;;5.39;92.99
16580;BME280;8402;51.466;6.806;2023-01-23T13:13:38;103359.19;;;5.44;94.78
16580;BME280;8402;51.466;6.806;2023-01-23T13:16:10;103361.66;;;5.46;95.17
16580;BME280;8402;51.466;6.806;2023-01-23T13:18:51;103360.84;;;5.39;93.93
16580;BME280;8402;51.466;6.806;2023-01-23T13:21:37;103352.97;;;5.44;95.25
16580;BME280;8402;51.466;6.806;2023-01-23T13:24:42;103356.06;;;5.41;93.80
16580;BME280;8402;51.466;6.806;2023-01-23T13:27:39;103352.19;;;5.37;93.52
16580;BME280;8402;51.466;6.806;2023-01-23T13:36:43;103363.53;;;5.39;94.86
16580;BME280;8402;51.466;6.806;2023-01-23T13:39:24;103356.28;;;5.39;94.04
16580;BME280;8402;51.466;6.806;2023-01-23T13:51:25;103363.75;;;5.44;94.88
16580;BME280;8402;51.466;6.806;2023-01-23T13:54:14;103365.38;;;5.45;94.79
16580;BME280;8402;51.466;6.806;2023-01-23T13:57:15;103359.38;;;5.43;94.81
16580;BME280;8402;51.466;6.806;2023-01-23T13:59:59;103369.13;;;5.44;94.71
16580;BME280;8402;51.466;6.806;2023-01-23T14:02:51;103374.50;;;5.44;95.15
16580;BME280;8402;51.466;6.806;2023-01-23T14:06:01;103373.69;;;5.43;94.89
16580;BME280;8402;51.466;6.806;2023-01-23T14:11:59;103372.41;;;5.46;95.05
16580;BME280;8402;51.466;6.806;2023-01-23T14:14:45;103376.56;;;5.42;93.88
16580;BME280;8402;51.466;6.806;2023-01-23T14:17:41;103377.84;;;5.39;94.44